sensor_id;sensor_type;location;lat;lon;timestamp;temperature;humidity
51855;DHT22;37895;53.240;6.572;2024-01-30T00:02:17;6.60;99.90
51855;DHT22;37895;53.240;6.572;2024-01-30T00:04:42;6.60;99.90
51855;DHT22;37895;53.240;6.572;2024-01-30T00:07:08;6.50;99.90
51855;DHT22;37895;53.240;6.572;2024-01-30T00:09:34;6.50;99.90
51855;DHT22;37895;53.240;6.572;2024-01-30T00:11:59;6.50;99.90
51855;DHT22;37895;53.240;6.572;2024-01-30T00:14:25;6.50;99.90
51855;DHT22;37895;53.240;6.572;2024-01-30T00:16:51;6.40;99.90
51855;DHT22;37895;53.240;6.572;2024-01-30T00:19:17;6.40;99.90
51855;DHT22;37895;53.240;6.572;2024-01-30T00:21:43;6.40;99.90
51855;DHT22;37895;53.240;6.572;2024-01-30T00:24:08;6.40;99.90
51855;DHT22;37895;53.240;6.572;2024-01-30T00:26:34;6.30;99.90
51855;DHT22;37895;53.240;6.572;2024-01-30T00:29:00;6.30;99.90
51855;DHT22;37895;53.240;6.572;2024-01-30T00:31:25;6.20;99.90
51855;DHT22;37895;53.240;6.572;2024-01-30T00:33:51;6.20;99.90
51855;DHT22;37895;53.240;6.572;2024-01-30T00:36:17;6.20;99.90
51855;DHT22;37895;53.240;6.572;2024-01-30T00:38:42;6.20;99.90
51855;DHT22;37895;53.240;6.572;2024-01-30T00:41:08;6.20;99.90
51855;DHT22;37895;53.240;6.572;2024-01-30T00:43:35;6.20;99.90
51855;DHT22;37895;53.240;6.572;2024-01-30T00:46:00;6.10;99.90
51855;DHT22;37895;53.240;6.572;2024-01-30T00:48:26;6.20;99.90
51855;DHT22;37895;53.240;6.572;2024-01-30T00:50:52;6.20;99.90
51855;DHT22;37895;53.240;6.572;2024-01-30T00:53:18;6.20;99.90
51855;DHT22;37895;53.240;6.572;2024-01-30T00:55:43;6.20;99.90
51855;DHT22;37895;53.240;6.572;2024-01-30T00:58:09;6.20;99.90
51855;DHT22;37895;53.240;6.572;2024-01-30T01:00:35;6.20;99.90
51855;DHT22;37895;53.240;6.572;2024-01-30T01:03:01;6.20;99.90
51855;DHT22;37895;53.240;6.572;2024-01-30T01:05:26;6.20;99.90
51855;DHT22;37895;53.240;6.572;2024-01-30T01:07:52;6.20;99.90
51855;DHT22;37895;53.240;6.572;2024-01-30T01:10:18;6.20;99.90
51855;DHT22;37895;53.240;6.572;2024-01-30T01:12:44;6.20;99.90
51855;DHT22;37895;53.240;6.572;2024-01-30T01:15:10;6.20;99.90
51855;DHT22;37895;53.240;6.572;2024-01-30T01:17:36;6.10;99.90
51855;DHT22;37895;53.240;6.572;2024-01-30T01:20:03;6.20;99.90
51855;DHT22;37895;53.240;6.572;2024-01-30T01:22:29;6.30;99.90
51855;DHT22;37895;53.240;6.572;2024-01-30T01:24:54;6.30;99.90
51855;DHT22;37895;53.240;6.572;2024-01-30T01:27:20;6.30;99.90
51855;DHT22;37895;53.240;6.572;2024-01-30T01:29:46;6.30;99.90
51855;DHT22;37895;53.240;6.572;2024-01-30T01:32:12;6.30;99.90
51855;DHT22;37895;53.240;6.572;2024-01-30T01:34:37;6.30;99.90
51855;DHT22;37895;53.240;6.572;2024-01-30T01:37:04;6.20;99.90
51855;DHT22;37895;53.240;6.572;2024-01-30T01:39:29;6.40;99.90
51855;DHT22;37895;53.240;6.572;2024-01-30T01:41:55;6.40;99.90
51855;DHT22;37895;53.240;6.572;2024-01-30T01:44:20;6.40;99.90
51855;DHT22;37895;53.240;6.572;2024-01-30T01:46:46;6.40;99.90
51855;DHT22;37895;53.240;6.572;2024-01-30T01:49:14;6.40;99.90
51855;DHT22;37895;53.240;6.572;2024-01-30T01:51:40;6.40;99.90
51855;DHT22;37895;53.240;6.572;2024-01-30T01:54:07;6.40;99.90
51855;DHT22;37895;53.240;6.572;2024-01-30T01:56:34;6.40;99.90
51855;DHT22;37895;53.240;6.572;2024-01-30T01:59:04;6.40;99.90
51855;DHT22;37895;53.240;6.572;2024-01-30T02:01:32;6.40;99.90
51855;DHT22;37895;53.240;6.572;2024-01-30T02:04:01;6.40;99.90
51855;DHT22;37895;53.240;6.572;2024-01-30T02:06:27;6.40;99.90
51855;DHT22;37895;53.240;6.572;2024-01-30T02:08:54;6.40;99.90
51855;DHT22;37895;53.240;6.572;2024-01-30T02:11:23;6.40;99.90
51855;DHT22;37895;53.240;6.572;2024-01-30T02:13:49;6.40;99.90
51855;DHT22;37895;53.240;6.572;2024-01-30T02:16:16;6.50;99.90
51855;DHT22;37895;53.240;6.572;2024-01-30T02:18:43;6.50;99.90
51855;DHT22;37895;53.240;6.572;2024-01-30T02:21:11;6.50;99.90
51855;DHT22;37895;53.240;6.572;2024-01-30T02:23:38;6.50;99.90
51855;DHT22;37895;53.240;6.572;2024-01-30T02:26:05;6.50;99.90
51855;DHT22;37895;53.240;6.572;2024-01-30T02:28:30;6.50;99.90
51855;DHT22;37895;53.240;6.572;2024-01-30T02:30:56;6.60;99.90
51855;DHT22;37895;53.240;6.572;2024-01-30T02:33:21;6.60;99.90
51855;DHT22;37895;53.240;6.572;2024-01-30T02:35:48;6.60;99.90
51855;DHT22;37895;53.240;6.572;2024-01-30T02:38:14;6.60;99.90
51855;DHT22;37895;53.240;6.572;2024-01-30T02:40:40;6.60;99.90
51855;DHT22;37895;53.240;6.572;2024-01-30T02:43:06;6.60;99.90
51855;DHT22;37895;53.240;6.572;2024-01-30T02:45:31;6.60;99.90
51855;DHT22;37895;53.240;6.572;2024-01-30T02:47:57;6.60;99.90
51855;DHT22;37895;53.240;6.572;2024-01-30T02:50:22;6.60;99.90
51855;DHT22;37895;53.240;6.572;2024-01-30T02:52:48;6.60;99.90
51855;DHT22;37895;53.240;6.572;2024-01-30T02:55:14;6.60;99.90
51855;DHT22;37895;53.240;6.572;2024-01-30T02:57:42;6.50;99.90
51855;DHT22;37895;53.240;6.572;2024-01-30T03:00:08;6.60;99.90
51855;DHT22;37895;53.240;6.572;2024-01-30T03:02:35;6.60;99.90
51855;DHT22;37895;53.240;6.572;2024-01-30T03:05:00;6.70;99.90
51855;DHT22;37895;53.240;6.572;2024-01-30T03:07:26;6.50;99.90
51855;DHT22;37895;53.240;6.572;2024-01-30T03:09:52;6.50;99.90
51855;DHT22;37895;53.240;6.572;2024-01-30T03:12:18;6.50;99.90
51855;DHT22;37895;53.240;6.572;2024-01-30T03:14:43;6.50;99.90
51855;DHT22;37895;53.240;6.572;2024-01-30T03:17:09;6.50;99.90
51855;DHT22;37895;53.240;6.572;2024-01-30T03:19:35;6.50;99.90
51855;DHT22;37895;53.240;6.572;2024-01-30T03:22:00;6.50;99.90
51855;DHT22;37895;53.240;6.572;2024-01-30T03:24:26;6.50;99.90
51855;DHT22;37895;53.240;6.572;2024-01-30T03:26:52;6.50;99.90
51855;DHT22;37895;53.240;6.572;2024-01-30T03:29:18;6.40;99.90
51855;DHT22;37895;53.240;6.572;2024-01-30T03:31:43;6.50;99.90
51855;DHT22;37895;53.240;6.572;2024-01-30T03:34:09;6.50;99.90
51855;DHT22;37895;53.240;6.572;2024-01-30T03:36:35;6.50;99.90
51855;DHT22;37895;53.240;6.572;2024-01-30T03:39:01;6.50;99.90
51855;DHT22;37895;53.240;6.572;2024-01-30T03:41:26;6.50;99.90
51855;DHT22;37895;53.240;6.572;2024-01-30T03:43:52;6.50;99.90
51855;DHT22;37895;53.240;6.572;2024-01-30T03:46:18;6.40;99.90
51855;DHT22;37895;53.240;6.572;2024-01-30T03:48:44;6.60;99.90
51855;DHT22;37895;53.240;6.572;2024-01-30T03:51:10;6.50;99.90
51855;DHT22;37895;53.240;6.572;2024-01-30T03:53:41;6.60;99.90
51855;DHT22;37895;53.240;6.572;2024-01-30T03:56:07;6.60;99.90
51855;DHT22;37895;53.240;6.572;2024-01-30T03:58:33;6.60;99.90
51855;DHT22;37895;53.240;6.572;2024-01-30T04:00:59;6.60;99.90
51855;DHT22;37895;53.240;6.572;2024-01-30T04:03:24;6.60;99.90
51855;DHT22;37895;53.240;6.572;2024-01-30T04:05:51;6.60;99.90
51855;DHT22;37895;53.240;6.572;2024-01-30T04:08:17;6.60;99.90
51855;DHT22;37895;53.240;6.572;2024-01-30T04:10:43;6.70;99.90
51855;DHT22;37895;53.240;6.572;2024-01-30T04:13:09;6.70;99.90
51855;DHT22;37895;53.240;6.572;2024-01-30T04:15:35;6.70;99.90
51855;DHT22;37895;53.240;6.572;2024-01-30T04:18:00;6.70;99.90
51855;DHT22;37895;53.240;6.572;2024-01-30T04:20:26;6.70;99.90
51855;DHT22;37895;53.240;6.572;2024-01-30T04:22:52;6.80;99.90
51855;DHT22;37895;53.240;6.572;2024-01-30T04:25:17;6.80;99.90
51855;DHT22;37895;53.240;6.572;2024-01-30T04:27:43;6.80;99.90
51855;DHT22;37895;53.240;6.572;2024-01-30T04:30:09;6.90;99.90
51855;DHT22;37895;53.240;6.572;2024-01-30T04:32:35;6.90;99.90
51855;DHT22;37895;53.240;6.572;2024-01-30T04:35:01;7.00;99.90
51855;DHT22;37895;53.240;6.572;2024-01-30T04:37:27;7.00;99.90
51855;DHT22;37895;53.240;6.572;2024-01-30T04:39:53;7.00;99.90
51855;DHT22;37895;53.240;6.572;2024-01-30T04:42:19;7.00;99.90
51855;DHT22;37895;53.240;6.572;2024-01-30T04:44:45;7.10;99.90
51855;DHT22;37895;53.240;6.572;2024-01-30T04:47:10;7.10;99.90
51855;DHT22;37895;53.240;6.572;2024-01-30T04:49:38;7.10;99.90
51855;DHT22;37895;53.240;6.572;2024-01-30T04:52:08;7.10;99.90
51855;DHT22;37895;53.240;6.572;2024-01-30T04:54:34;7.20;99.90
51855;DHT22;37895;53.240;6.572;2024-01-30T04:57:00;7.20;99.90
51855;DHT22;37895;53.240;6.572;2024-01-30T04:59:26;7.20;99.90
51855;DHT22;37895;53.240;6.572;2024-01-30T05:01:51;7.20;99.90
51855;DHT22;37895;53.240;6.572;2024-01-30T05:04:17;7.20;99.90
51855;DHT22;37895;53.240;6.572;2024-01-30T05:06:43;7.30;99.90
51855;DHT22;37895;53.240;6.572;2024-01-30T05:09:09;7.30;99.90
51855;DHT22;37895;53.240;6.572;2024-01-30T05:11:41;7.30;99.90
51855;DHT22;37895;53.240;6.572;2024-01-30T05:14:07;7.40;99.90
51855;DHT22;37895;53.240;6.572;2024-01-30T05:16:34;7.40;99.90
51855;DHT22;37895;53.240;6.572;2024-01-30T05:18:59;7.40;99.90
51855;DHT22;37895;53.240;6.572;2024-01-30T05:21:25;7.40;99.90
51855;DHT22;37895;53.240;6.572;2024-01-30T05:23:51;7.40;99.90
51855;DHT22;37895;53.240;6.572;2024-01-30T05:26:17;7.50;99.90
51855;DHT22;37895;53.240;6.572;2024-01-30T05:28:43;7.50;99.90
51855;DHT22;37895;53.240;6.572;2024-01-30T05:31:10;7.50;99.90
51855;DHT22;37895;53.240;6.572;2024-01-30T05:33:36;7.40;99.90
51855;DHT22;37895;53.240;6.572;2024-01-30T05:36:01;7.40;99.90
51855;DHT22;37895;53.240;6.572;2024-01-30T05:38:30;7.50;99.90
51855;DHT22;37895;53.240;6.572;2024-01-30T05:40:57;7.50;99.90
51855;DHT22;37895;53.240;6.572;2024-01-30T05:43:24;7.50;99.90
51855;DHT22;37895;53.240;6.572;2024-01-30T05:45:49;7.50;99.90
51855;DHT22;37895;53.240;6.572;2024-01-30T05:48:15;7.50;99.90
51855;DHT22;37895;53.240;6.572;2024-01-30T05:50:41;7.60;99.90
51855;DHT22;37895;53.240;6.572;2024-01-30T05:53:07;7.60;99.90
51855;DHT22;37895;53.240;6.572;2024-01-30T05:55:32;7.50;99.90
51855;DHT22;37895;53.240;6.572;2024-01-30T05:57:58;7.60;99.90
51855;DHT22;37895;53.240;6.572;2024-01-30T06:00:23;7.60;99.90
51855;DHT22;37895;53.240;6.572;2024-01-30T06:02:49;7.60;99.90
51855;DHT22;37895;53.240;6.572;2024-01-30T06:05:15;7.60;99.90
51855;DHT22;37895;53.240;6.572;2024-01-30T06:07:40;7.60;99.90
51855;DHT22;37895;53.240;6.572;2024-01-30T06:10:06;7.60;99.90
51855;DHT22;37895;53.240;6.572;2024-01-30T06:12:33;7.60;99.90
51855;DHT22;37895;53.240;6.572;2024-01-30T06:14:58;7.60;99.90
51855;DHT22;37895;53.240;6.572;2024-01-30T06:17:24;7.60;99.90
51855;DHT22;37895;53.240;6.572;2024-01-30T06:19:50;7.50;99.90
51855;DHT22;37895;53.240;6.572;2024-01-30T06:22:16;7.50;99.90
51855;DHT22;37895;53.240;6.572;2024-01-30T06:24:41;7.50;99.90
51855;DHT22;37895;53.240;6.572;2024-01-30T06:27:07;7.50;99.90
51855;DHT22;37895;53.240;6.572;2024-01-30T06:29:33;7.60;99.90
51855;DHT22;37895;53.240;6.572;2024-01-30T06:32:00;7.50;99.90
51855;DHT22;37895;53.240;6.572;2024-01-30T06:34:27;7.50;99.90
51855;DHT22;37895;53.240;6.572;2024-01-30T06:36:52;7.60;99.90
51855;DHT22;37895;53.240;6.572;2024-01-30T06:39:18;7.50;99.90
51855;DHT22;37895;53.240;6.572;2024-01-30T06:41:44;7.60;99.90
51855;DHT22;37895;53.240;6.572;2024-01-30T06:44:12;7.60;99.90
51855;DHT22;37895;53.240;6.572;2024-01-30T06:46:45;7.60;99.90
51855;DHT22;37895;53.240;6.572;2024-01-30T06:49:11;7.60;99.90
51855;DHT22;37895;53.240;6.572;2024-01-30T06:51:37;7.60;99.90
51855;DHT22;37895;53.240;6.572;2024-01-30T06:54:05;7.60;99.90
51855;DHT22;37895;53.240;6.572;2024-01-30T06:56:31;7.70;99.90
51855;DHT22;37895;53.240;6.572;2024-01-30T06:58:56;7.70;99.90
51855;DHT22;37895;53.240;6.572;2024-01-30T07:01:28;7.70;99.90
51855;DHT22;37895;53.240;6.572;2024-01-30T07:04:04;7.80;99.90
51855;DHT22;37895;53.240;6.572;2024-01-30T07:06:29;7.80;99.90
51855;DHT22;37895;53.240;6.572;2024-01-30T07:09:00;7.80;99.90
51855;DHT22;37895;53.240;6.572;2024-01-30T07:11:25;7.80;99.90
51855;DHT22;37895;53.240;6.572;2024-01-30T07:13:52;8.00;99.90
51855;DHT22;37895;53.240;6.572;2024-01-30T07:16:19;7.70;99.90
51855;DHT22;37895;53.240;6.572;2024-01-30T07:18:45;7.80;99.90
51855;DHT22;37895;53.240;6.572;2024-01-30T07:21:11;7.80;99.90
51855;DHT22;37895;53.240;6.572;2024-01-30T07:23:37;7.80;99.90
51855;DHT22;37895;53.240;6.572;2024-01-30T07:26:05;7.70;99.90
51855;DHT22;37895;53.240;6.572;2024-01-30T07:28:32;7.70;99.90
51855;DHT22;37895;53.240;6.572;2024-01-30T07:30:57;7.80;99.90
51855;DHT22;37895;53.240;6.572;2024-01-30T07:33:24;7.80;99.90
51855;DHT22;37895;53.240;6.572;2024-01-30T07:35:49;7.80;99.90
51855;DHT22;37895;53.240;6.572;2024-01-30T07:38:15;7.90;99.90
51855;DHT22;37895;53.240;6.572;2024-01-30T07:40:40;7.80;99.90
51855;DHT22;37895;53.240;6.572;2024-01-30T07:43:06;7.90;99.90
51855;DHT22;37895;53.240;6.572;2024-01-30T07:45:32;7.80;99.90
51855;DHT22;37895;53.240;6.572;2024-01-30T07:47:58;7.90;99.90
51855;DHT22;37895;53.240;6.572;2024-01-30T07:50:25;7.90;99.90
51855;DHT22;37895;53.240;6.572;2024-01-30T07:52:51;7.90;99.90
51855;DHT22;37895;53.240;6.572;2024-01-30T07:55:20;7.90;99.90
51855;DHT22;37895;53.240;6.572;2024-01-30T07:57:48;7.90;99.90
51855;DHT22;37895;53.240;6.572;2024-01-30T08:00:14;8.20;99.90
51855;DHT22;37895;53.240;6.572;2024-01-30T08:02:39;8.00;99.90
51855;DHT22;37895;53.240;6.572;2024-01-30T08:05:05;8.00;99.90
51855;DHT22;37895;53.240;6.572;2024-01-30T08:07:31;8.00;99.90
51855;DHT22;37895;53.240;6.572;2024-01-30T08:09:56;8.10;99.90
51855;DHT22;37895;53.240;6.572;2024-01-30T08:12:22;8.00;99.90
51855;DHT22;37895;53.240;6.572;2024-01-30T08:14:47;8.10;99.90
51855;DHT22;37895;53.240;6.572;2024-01-30T08:17:13;8.10;99.90
51855;DHT22;37895;53.240;6.572;2024-01-30T08:19:39;8.10;99.90
51855;DHT22;37895;53.240;6.572;2024-01-30T08:22:04;8.10;99.90
51855;DHT22;37895;53.240;6.572;2024-01-30T08:24:30;8.40;99.90
51855;DHT22;37895;53.240;6.572;2024-01-30T08:26:55;8.10;99.90
51855;DHT22;37895;53.240;6.572;2024-01-30T08:29:21;8.10;99.90
51855;DHT22;37895;53.240;6.572;2024-01-30T08:31:46;8.10;99.90
51855;DHT22;37895;53.240;6.572;2024-01-30T08:34:12;8.10;99.90
51855;DHT22;37895;53.240;6.572;2024-01-30T08:36:38;8.20;99.90
51855;DHT22;37895;53.240;6.572;2024-01-30T08:39:03;8.20;99.90
51855;DHT22;37895;53.240;6.572;2024-01-30T08:41:30;8.20;99.90
51855;DHT22;37895;53.240;6.572;2024-01-30T08:43:56;8.30;99.90
51855;DHT22;37895;53.240;6.572;2024-01-30T08:46:22;8.30;99.90
51855;DHT22;37895;53.240;6.572;2024-01-30T08:48:47;8.40;99.90
51855;DHT22;37895;53.240;6.572;2024-01-30T08:51:13;8.40;99.90
51855;DHT22;37895;53.240;6.572;2024-01-30T08:53:40;8.40;99.90
51855;DHT22;37895;53.240;6.572;2024-01-30T08:56:06;8.40;99.90
51855;DHT22;37895;53.240;6.572;2024-01-30T08:58:33;8.40;99.90
51855;DHT22;37895;53.240;6.572;2024-01-30T09:00:59;8.40;99.90
51855;DHT22;37895;53.240;6.572;2024-01-30T09:03:24;8.40;99.90
51855;DHT22;37895;53.240;6.572;2024-01-30T09:05:50;8.50;99.90
51855;DHT22;37895;53.240;6.572;2024-01-30T09:08:16;8.50;99.90
51855;DHT22;37895;53.240;6.572;2024-01-30T09:10:41;8.60;99.90
51855;DHT22;37895;53.240;6.572;2024-01-30T09:13:07;8.60;99.90
51855;DHT22;37895;53.240;6.572;2024-01-30T09:15:33;8.70;99.90
51855;DHT22;37895;53.240;6.572;2024-01-30T09:17:58;8.70;99.90
51855;DHT22;37895;53.240;6.572;2024-01-30T09:20:24;8.80;99.90
51855;DHT22;37895;53.240;6.572;2024-01-30T09:22:50;8.80;99.90
51855;DHT22;37895;53.240;6.572;2024-01-30T09:25:15;8.90;99.90
51855;DHT22;37895;53.240;6.572;2024-01-30T09:27:41;9.00;99.90
51855;DHT22;37895;53.240;6.572;2024-01-30T09:30:11;9.00;99.90
51855;DHT22;37895;53.240;6.572;2024-01-30T09:32:41;9.10;99.90
51855;DHT22;37895;53.240;6.572;2024-01-30T09:35:07;9.10;99.90
51855;DHT22;37895;53.240;6.572;2024-01-30T09:37:33;9.20;99.90
51855;DHT22;37895;53.240;6.572;2024-01-30T09:39:59;9.20;99.90
51855;DHT22;37895;53.240;6.572;2024-01-30T09:42:33;9.30;99.90
51855;DHT22;37895;53.240;6.572;2024-01-30T09:44:59;9.40;99.90
51855;DHT22;37895;53.240;6.572;2024-01-30T09:47:26;9.50;99.90
51855;DHT22;37895;53.240;6.572;2024-01-30T09:49:51;9.60;99.90
51855;DHT22;37895;53.240;6.572;2024-01-30T09:52:17;9.60;99.90
51855;DHT22;37895;53.240;6.572;2024-01-30T09:54:45;9.60;99.90
51855;DHT22;37895;53.240;6.572;2024-01-30T09:57:11;9.70;99.90
51855;DHT22;37895;53.240;6.572;2024-01-30T09:59:37;9.70;99.90
51855;DHT22;37895;53.240;6.572;2024-01-30T10:02:04;9.70;99.90
51855;DHT22;37895;53.240;6.572;2024-01-30T10:04:30;9.80;99.90
51855;DHT22;37895;53.240;6.572;2024-01-30T10:06:56;9.80;99.90
51855;DHT22;37895;53.240;6.572;2024-01-30T10:09:21;9.80;99.90
51855;DHT22;37895;53.240;6.572;2024-01-30T10:11:49;9.90;99.90
51855;DHT22;37895;53.240;6.572;2024-01-30T10:14:16;9.90;99.90
51855;DHT22;37895;53.240;6.572;2024-01-30T10:16:42;10.00;99.90
51855;DHT22;37895;53.240;6.572;2024-01-30T10:19:10;10.00;99.90
51855;DHT22;37895;53.240;6.572;2024-01-30T10:21:35;10.10;99.90
51855;DHT22;37895;53.240;6.572;2024-01-30T10:24:01;10.20;99.90
51855;DHT22;37895;53.240;6.572;2024-01-30T10:26:26;10.20;99.90
51855;DHT22;37895;53.240;6.572;2024-01-30T10:28:54;10.20;99.90
51855;DHT22;37895;53.240;6.572;2024-01-30T10:31:20;10.20;99.90
51855;DHT22;37895;53.240;6.572;2024-01-30T10:33:46;10.30;99.90
51855;DHT22;37895;53.240;6.572;2024-01-30T10:36:13;10.40;99.90
51855;DHT22;37895;53.240;6.572;2024-01-30T10:38:42;10.50;99.90
51855;DHT22;37895;53.240;6.572;2024-01-30T10:41:08;10.50;99.90
51855;DHT22;37895;53.240;6.572;2024-01-30T10:43:41;10.40;99.90
51855;DHT22;37895;53.240;6.572;2024-01-30T10:46:18;10.40;99.90
51855;DHT22;37895;53.240;6.572;2024-01-30T10:48:57;10.40;99.90
51855;DHT22;37895;53.240;6.572;2024-01-30T10:51:25;10.40;99.90
51855;DHT22;37895;53.240;6.572;2024-01-30T10:53:52;10.40;99.90
51855;DHT22;37895;53.240;6.572;2024-01-30T10:56:20;10.40;99.90
51855;DHT22;37895;53.240;6.572;2024-01-30T10:58:50;10.40;99.90
51855;DHT22;37895;53.240;6.572;2024-01-30T11:01:18;10.40;99.90
51855;DHT22;37895;53.240;6.572;2024-01-30T11:03:45;10.40;99.90
51855;DHT22;37895;53.240;6.572;2024-01-30T11:06:11;10.40;99.90
51855;DHT22;37895;53.240;6.572;2024-01-30T11:08:46;10.40;99.90
51855;DHT22;37895;53.240;6.572;2024-01-30T11:11:12;10.50;99.90
51855;DHT22;37895;53.240;6.572;2024-01-30T11:13:37;10.50;99.90
51855;DHT22;37895;53.240;6.572;2024-01-30T11:16:04;10.50;99.90
51855;DHT22;37895;53.240;6.572;2024-01-30T11:18:31;10.50;99.90
51855;DHT22;37895;53.240;6.572;2024-01-30T11:20:58;10.60;99.90
51855;DHT22;37895;53.240;6.572;2024-01-30T11:23:26;10.50;99.90
51855;DHT22;37895;53.240;6.572;2024-01-30T11:25:52;10.50;99.90
51855;DHT22;37895;53.240;6.572;2024-01-30T11:28:18;10.40;99.90
51855;DHT22;37895;53.240;6.572;2024-01-30T11:30:44;10.40;99.90
51855;DHT22;37895;53.240;6.572;2024-01-30T11:33:12;10.50;99.90
51855;DHT22;37895;53.240;6.572;2024-01-30T11:35:42;10.50;99.90
51855;DHT22;37895;53.240;6.572;2024-01-30T11:38:09;10.60;99.90
51855;DHT22;37895;53.240;6.572;2024-01-30T11:40:36;10.60;99.90
51855;DHT22;37895;53.240;6.572;2024-01-30T11:43:04;10.60;99.90
51855;DHT22;37895;53.240;6.572;2024-01-30T11:45:31;10.60;99.90
51855;DHT22;37895;53.240;6.572;2024-01-30T11:47:57;10.60;99.90
51855;DHT22;37895;53.240;6.572;2024-01-30T11:50:25;10.60;99.90
51855;DHT22;37895;53.240;6.572;2024-01-30T11:52:51;10.60;99.90
51855;DHT22;37895;53.240;6.572;2024-01-30T11:55:18;10.60;99.90
51855;DHT22;37895;53.240;6.572;2024-01-30T11:57:44;10.60;99.90
51855;DHT22;37895;53.240;6.572;2024-01-30T12:00:17;10.60;99.90
51855;DHT22;37895;53.240;6.572;2024-01-30T12:02:44;10.50;99.90
51855;DHT22;37895;53.240;6.572;2024-01-30T12:05:10;10.40;99.90
51855;DHT22;37895;53.240;6.572;2024-01-30T12:07:36;10.40;99.90
51855;DHT22;37895;53.240;6.572;2024-01-30T12:10:01;10.40;99.90
51855;DHT22;37895;53.240;6.572;2024-01-30T12:12:28;10.30;99.90
51855;DHT22;37895;53.240;6.572;2024-01-30T12:14:55;10.30;99.90
51855;DHT22;37895;53.240;6.572;2024-01-30T12:17:39;10.40;99.90
51855;DHT22;37895;53.240;6.572;2024-01-30T12:20:09;10.40;99.90
51855;DHT22;37895;53.240;6.572;2024-01-30T12:22:42;10.40;99.90
51855;DHT22;37895;53.240;6.572;2024-01-30T12:25:09;10.30;99.90
51855;DHT22;37895;53.240;6.572;2024-01-30T12:27:36;10.20;99.90
51855;DHT22;37895;53.240;6.572;2024-01-30T12:30:08;10.20;99.90
51855;DHT22;37895;53.240;6.572;2024-01-30T12:32:40;10.20;99.90
51855;DHT22;37895;53.240;6.572;2024-01-30T12:35:23;10.20;99.90
51855;DHT22;37895;53.240;6.572;2024-01-30T12:37:49;10.20;99.90
51855;DHT22;37895;53.240;6.572;2024-01-30T12:40:16;10.20;99.90
51855;DHT22;37895;53.240;6.572;2024-01-30T12:42:42;10.20;99.90
51855;DHT22;37895;53.240;6.572;2024-01-30T12:45:08;10.20;99.90
51855;DHT22;37895;53.240;6.572;2024-01-30T12:47:34;10.20;99.90
51855;DHT22;37895;53.240;6.572;2024-01-30T12:50:00;10.10;99.90
51855;DHT22;37895;53.240;6.572;2024-01-30T12:52:26;10.10;99.90
51855;DHT22;37895;53.240;6.572;2024-01-30T12:54:52;10.20;99.90
51855;DHT22;37895;53.240;6.572;2024-01-30T12:57:18;10.20;99.90
51855;DHT22;37895;53.240;6.572;2024-01-30T12:59:44;10.20;99.90
51855;DHT22;37895;53.240;6.572;2024-01-30T13:02:10;10.30;99.90
51855;DHT22;37895;53.240;6.572;2024-01-30T13:04:36;10.30;99.90
51855;DHT22;37895;53.240;6.572;2024-01-30T13:07:02;10.30;99.90
51855;DHT22;37895;53.240;6.572;2024-01-30T13:09:29;10.40;99.90
51855;DHT22;37895;53.240;6.572;2024-01-30T13:11:55;10.30;99.90
51855;DHT22;37895;53.240;6.572;2024-01-30T13:14:20;10.30;99.90
51855;DHT22;37895;53.240;6.572;2024-01-30T13:16:46;10.30;99.90
51855;DHT22;37895;53.240;6.572;2024-01-30T13:19:12;10.30;99.90
51855;DHT22;37895;53.240;6.572;2024-01-30T13:21:37;10.30;99.90
51855;DHT22;37895;53.240;6.572;2024-01-30T13:24:04;10.30;99.90
51855;DHT22;37895;53.240;6.572;2024-01-30T13:26:31;9.60;99.90
51855;DHT22;37895;53.240;6.572;2024-01-30T13:28:57;10.20;99.90
51855;DHT22;37895;53.240;6.572;2024-01-30T13:31:23;10.20;99.90
51855;DHT22;37895;53.240;6.572;2024-01-30T13:33:48;10.20;99.90
51855;DHT22;37895;53.240;6.572;2024-01-30T13:36:14;10.20;99.90
51855;DHT22;37895;53.240;6.572;2024-01-30T13:38:40;10.10;99.90
51855;DHT22;37895;53.240;6.572;2024-01-30T13:41:06;10.10;99.90
51855;DHT22;37895;53.240;6.572;2024-01-30T13:43:32;10.00;99.90
51855;DHT22;37895;53.240;6.572;2024-01-30T13:45:58;10.00;99.90
51855;DHT22;37895;53.240;6.572;2024-01-30T13:48:24;10.00;99.90
51855;DHT22;37895;53.240;6.572;2024-01-30T13:50:49;10.00;99.90
51855;DHT22;37895;53.240;6.572;2024-01-30T13:53:15;10.00;99.90
51855;DHT22;37895;53.240;6.572;2024-01-30T13:55:41;10.00;99.90
51855;DHT22;37895;53.240;6.572;2024-01-30T13:58:07;10.00;99.90
51855;DHT22;37895;53.240;6.572;2024-01-30T14:00:33;9.90;99.90
51855;DHT22;37895;53.240;6.572;2024-01-30T14:02:59;10.00;99.90
51855;DHT22;37895;53.240;6.572;2024-01-30T14:05:25;10.00;99.90
51855;DHT22;37895;53.240;6.572;2024-01-30T14:07:52;9.90;99.90
51855;DHT22;37895;53.240;6.572;2024-01-30T14:10:18;9.80;99.90
51855;DHT22;37895;53.240;6.572;2024-01-30T14:12:44;9.80;99.90
51855;DHT22;37895;53.240;6.572;2024-01-30T14:15:10;9.90;99.90
51855;DHT22;37895;53.240;6.572;2024-01-30T14:17:36;9.80;99.90
51855;DHT22;37895;53.240;6.572;2024-01-30T14:20:05;9.80;99.90
51855;DHT22;37895;53.240;6.572;2024-01-30T14:22:33;9.80;99.90
51855;DHT22;37895;53.240;6.572;2024-01-30T14:24:59;9.80;99.90
51855;DHT22;37895;53.240;6.572;2024-01-30T14:27:25;9.80;99.90
51855;DHT22;37895;53.240;6.572;2024-01-30T14:29:50;9.70;99.90
51855;DHT22;37895;53.240;6.572;2024-01-30T14:32:16;9.70;99.90
51855;DHT22;37895;53.240;6.572;2024-01-30T14:34:41;9.70;99.90
51855;DHT22;37895;53.240;6.572;2024-01-30T14:37:07;9.60;99.90
51855;DHT22;37895;53.240;6.572;2024-01-30T14:39:33;9.60;99.90
51855;DHT22;37895;53.240;6.572;2024-01-30T14:41:59;9.50;99.90
51855;DHT22;37895;53.240;6.572;2024-01-30T14:44:25;9.40;99.90
51855;DHT22;37895;53.240;6.572;2024-01-30T14:46:51;9.30;99.90
51855;DHT22;37895;53.240;6.572;2024-01-30T14:49:17;9.30;99.90
51855;DHT22;37895;53.240;6.572;2024-01-30T14:51:42;9.20;99.90
51855;DHT22;37895;53.240;6.572;2024-01-30T14:54:08;9.20;99.90
51855;DHT22;37895;53.240;6.572;2024-01-30T14:56:34;9.10;99.90
51855;DHT22;37895;53.240;6.572;2024-01-30T14:59:00;9.00;99.90
51855;DHT22;37895;53.240;6.572;2024-01-30T15:01:26;9.00;99.90
51855;DHT22;37895;53.240;6.572;2024-01-30T15:03:51;9.00;99.90
51855;DHT22;37895;53.240;6.572;2024-01-30T15:06:18;9.00;99.90
51855;DHT22;37895;53.240;6.572;2024-01-30T15:08:44;9.00;99.90
51855;DHT22;37895;53.240;6.572;2024-01-30T15:11:10;9.00;99.90
51855;DHT22;37895;53.240;6.572;2024-01-30T15:13:36;9.00;99.90
51855;DHT22;37895;53.240;6.572;2024-01-30T15:16:02;8.90;99.90
51855;DHT22;37895;53.240;6.572;2024-01-30T15:18:30;8.90;99.90
51855;DHT22;37895;53.240;6.572;2024-01-30T15:20:56;8.90;99.90
51855;DHT22;37895;53.240;6.572;2024-01-30T15:23:21;8.80;99.90
51855;DHT22;37895;53.240;6.572;2024-01-30T15:25:47;8.90;99.90
51855;DHT22;37895;53.240;6.572;2024-01-30T15:28:13;8.90;99.90
51855;DHT22;37895;53.240;6.572;2024-01-30T15:30:40;8.80;99.90
51855;DHT22;37895;53.240;6.572;2024-01-30T15:33:09;8.80;99.90
51855;DHT22;37895;53.240;6.572;2024-01-30T15:35:34;8.80;99.90
51855;DHT22;37895;53.240;6.572;2024-01-30T15:38:00;8.90;99.90